Terminal Aerodrome Forecast
Issued by NWS

Home | Current Version | Previous Version | Graphics & Text | Print | Product List | Glossary On
Versions: 1 2 3 4 5 6 7 8 9 10 11 12 13 14 15 16 17 18
000
FTUS43 KTOP 250900 AAA
TAFFOE
TAF AMD
KFOE 250942Z 2510/2606 19008KT P6SM -RA VCTS SCT023 OVC040CB
     FM251600 33014G22KT P6SM BKN025
     FM260000 01010KT P6SM OVC020=

USA.gov is the U.S. government's official web portal to all federal, state and local government web resources and services.